createdAt,value
2017-05-25T00:00:15.194Z,4.34
2017-05-25T00:02:45.490Z,5.38
2017-05-25T00:05:15.638Z,4.74
2017-05-25T00:07:45.704Z,3.22
2017-05-25T00:10:15.693Z,11.00
2017-05-25T00:12:46.184Z,3.70
2017-05-25T00:15:15.820Z,4.04
2017-05-25T00:17:46.030Z,2.36
2017-05-25T00:20:15.603Z,5.14
2017-05-25T00:22:45.926Z,4.94
2017-05-25T00:25:16.228Z,4.38
2017-05-25T00:27:46.401Z,3.26
2017-05-25T00:30:17.526Z,5.48
2017-05-25T00:32:47.993Z,4.34
2017-05-25T00:35:19.064Z,4.96
2017-05-25T00:37:49.436Z,4.68
2017-05-25T00:40:19.644Z,4.96
2017-05-25T00:42:49.830Z,10.38
2017-05-25T00:45:20.297Z,4.72
2017-05-25T00:47:50.684Z,7.14
2017-05-25T00:50:20.828Z,4.90
2017-05-25T00:52:51.338Z,6.92
2017-05-25T00:55:21.435Z,5.36
2017-05-25T00:57:51.640Z,7.62
2017-05-25T01:00:21.927Z,5.54
2017-05-25T01:02:52.119Z,6.26
2017-05-25T01:05:21.584Z,5.34
2017-05-25T01:07:51.914Z,5.96
2017-05-25T01:10:22.047Z,3.88
2017-05-25T01:12:52.028Z,5.04
2017-05-25T01:15:22.145Z,3.74
2017-05-25T01:17:52.299Z,6.14
2017-05-25T01:20:22.832Z,5.06
2017-05-25T01:22:53.435Z,7.84
2017-05-25T01:25:23.884Z,5.48
2017-05-25T01:27:53.899Z,3.04
2017-05-25T01:30:24.892Z,5.58
2017-05-25T01:32:55.092Z,5.20
2017-05-25T01:35:25.081Z,5.40
2017-05-25T01:37:55.554Z,4.98
2017-05-25T01:40:25.935Z,4.86
2017-05-25T01:42:56.086Z,5.34
2017-05-25T01:45:26.310Z,7.70
2017-05-25T01:47:56.744Z,6.60
2017-05-25T01:50:27.050Z,3.66
2017-05-25T01:52:57.334Z,5.30
2017-05-25T01:55:27.391Z,5.78
2017-05-25T01:57:57.627Z,5.58
2017-05-25T02:00:27.707Z,5.32
2017-05-25T02:02:58.051Z,11.58
2017-05-25T02:05:28.012Z,5.64
2017-05-25T02:07:58.183Z,5.18
2017-05-25T02:10:28.284Z,12.06
2017-05-25T02:12:58.242Z,3.52
2017-05-25T02:15:28.393Z,5.38
2017-05-25T02:17:58.460Z,6.76
2017-05-25T02:20:27.902Z,6.86
2017-05-25T02:22:57.985Z,9.18
2017-05-25T02:25:27.503Z,5.54
2017-05-25T02:27:57.735Z,8.86
2017-05-25T02:30:29.516Z,3.24
2017-05-25T02:32:59.737Z,6.76
2017-05-25T02:35:29.671Z,4.34
2017-05-25T02:37:59.691Z,4.32
2017-05-25T02:40:30.189Z,4.84
2017-05-25T02:42:59.670Z,6.32
2017-05-25T02:45:29.704Z,6.66
2017-05-25T02:47:59.836Z,6.62
2017-05-25T02:50:30.089Z,7.86
2017-05-25T02:53:00.302Z,7.48
2017-05-25T02:55:30.422Z,4.90
2017-05-25T02:58:00.597Z,10.20
2017-05-25T03:00:30.832Z,5.16
2017-05-25T03:03:01.151Z,7.08
2017-05-25T03:05:31.479Z,8.26
2017-05-25T03:08:02.087Z,5.62
2017-05-25T03:10:32.520Z,7.98
2017-05-25T03:13:02.003Z,6.72
2017-05-25T03:15:31.439Z,4.50
2017-05-25T03:18:00.237Z,7.90
2017-05-25T03:20:28.876Z,9.34
2017-05-25T03:22:58.620Z,8.08
2017-05-25T03:25:27.386Z,6.30
2017-05-25T03:27:57.490Z,8.18
2017-05-25T03:30:27.916Z,7.34
2017-05-25T03:32:58.636Z,6.58
2017-05-25T03:35:28.857Z,5.18
2017-05-25T03:37:58.785Z,9.50
2017-05-25T03:40:29.004Z,8.52
2017-05-25T03:42:58.958Z,8.56
2017-05-25T03:45:29.152Z,5.02
2017-05-25T03:47:59.454Z,6.46
2017-05-25T03:50:29.645Z,7.60
2017-05-25T03:53:00.121Z,7.42
2017-05-25T03:55:30.382Z,8.66
2017-05-25T03:58:00.499Z,6.34
2017-05-25T04:00:30.909Z,6.80
2017-05-25T04:03:01.302Z,5.86
2017-05-25T04:05:31.535Z,6.96
2017-05-25T04:08:01.710Z,7.72
2017-05-25T04:10:32.088Z,5.76
2017-05-25T04:13:02.335Z,8.06
2017-05-25T04:15:32.787Z,4.38
2017-05-25T04:18:02.981Z,9.64
2017-05-25T04:20:32.592Z,8.06
2017-05-25T04:23:02.737Z,9.16
2017-05-25T04:25:32.985Z,7.40
2017-05-25T04:28:02.893Z,7.86
2017-05-25T04:30:33.008Z,8.66
2017-05-25T04:33:04.209Z,9.48
2017-05-25T04:35:34.259Z,9.78
2017-05-25T04:38:03.786Z,10.14
2017-05-25T04:40:33.295Z,10.02
2017-05-25T04:43:01.976Z,7.40
2017-05-25T04:45:30.658Z,11.02
2017-05-25T04:47:59.896Z,11.04
2017-05-25T04:50:28.822Z,11.70
2017-05-25T04:52:58.380Z,7.28
2017-05-25T04:55:28.763Z,9.82
2017-05-25T04:57:59.376Z,10.36
2017-05-25T05:00:30.218Z,9.62
2017-05-25T05:03:00.546Z,12.90
2017-05-25T05:05:31.152Z,7.30
2017-05-25T05:08:01.648Z,7.74
2017-05-25T05:10:32.135Z,7.90
2017-05-25T05:16:23.519Z,11.50
2017-05-25T05:18:53.578Z,15.00
2017-05-25T05:21:23.973Z,8.96
2017-05-25T05:23:54.065Z,10.48
2017-05-25T05:26:24.409Z,7.74
2017-05-25T05:28:54.675Z,10.76
2017-05-25T05:31:24.129Z,6.56
2017-05-25T05:33:55.069Z,7.86
2017-05-25T05:36:25.097Z,5.70
2017-05-25T05:38:55.519Z,10.98
2017-05-25T05:41:25.568Z,13.30
2017-05-25T05:43:55.965Z,6.56
2017-05-25T05:46:25.936Z,8.32
2017-05-25T05:48:55.185Z,8.90
2017-05-25T05:51:25.151Z,9.66
2017-05-25T05:53:54.478Z,12.12
2017-05-25T05:56:24.926Z,7.56
2017-05-25T05:58:54.871Z,16.94
2017-05-25T06:01:24.349Z,11.74
2017-05-25T06:03:54.669Z,8.10
2017-05-25T06:06:24.939Z,9.80
2017-05-25T06:08:54.948Z,9.72
2017-05-25T06:11:24.762Z,12.42
2017-05-25T06:13:55.285Z,13.48
2017-05-25T06:16:25.179Z,13.68
2017-05-25T06:18:55.346Z,10.66
2017-05-25T06:21:25.426Z,8.42
2017-05-25T06:23:55.822Z,16.40
2017-05-25T06:26:26.088Z,13.64
2017-05-25T06:28:56.356Z,11.72
2017-05-25T06:31:26.634Z,14.85
2017-05-25T06:33:58.087Z,14.05
2017-05-25T06:36:28.017Z,16.95
2017-05-25T06:38:58.332Z,12.56
2017-05-25T06:41:28.569Z,9.65
2017-05-25T06:43:58.733Z,13.15
2017-05-25T06:46:28.837Z,12.16
2017-05-25T06:48:59.188Z,11.82
2017-05-25T06:51:29.266Z,12.83
2017-05-25T06:53:59.471Z,13.80
2017-05-25T06:56:28.811Z,12.65
2017-05-25T06:58:58.988Z,15.75
2017-05-25T07:01:28.376Z,10.33
2017-05-25T07:03:58.491Z,13.18
2017-05-25T07:06:27.858Z,15.18
2017-05-25T07:08:58.273Z,14.32
2017-05-25T07:11:28.381Z,19.45
2017-05-25T07:13:58.679Z,11.67
2017-05-25T07:16:28.952Z,14.65
2017-05-25T07:18:59.084Z,15.30
2017-05-25T07:21:29.360Z,16.70
2017-05-25T07:23:59.334Z,11.18
2017-05-25T07:26:29.588Z,23.92
2017-05-25T07:28:59.028Z,10.02
2017-05-25T07:31:29.463Z,15.47
2017-05-25T07:34:00.410Z,11.98
2017-05-25T07:36:30.757Z,11.27
2017-05-25T07:39:00.868Z,13.65
2017-05-25T07:41:31.058Z,10.33
2017-05-25T07:44:01.157Z,14.02
2017-05-25T07:46:30.428Z,15.98
2017-05-25T07:49:00.627Z,13.43
2017-05-25T07:51:30.789Z,12.13
2017-05-25T07:54:00.954Z,11.12
2017-05-25T07:56:31.161Z,15.95
2017-05-25T07:59:01.386Z,15.00
2017-05-25T08:01:31.675Z,17.27
2017-05-25T08:04:01.984Z,15.75
2017-05-25T08:06:31.991Z,12.20
2017-05-25T08:09:02.331Z,16.67
2017-05-25T08:11:32.432Z,9.90
2017-05-25T08:14:02.585Z,12.25
2017-05-25T08:16:32.137Z,16.18
2017-05-25T08:19:02.380Z,16.00
2017-05-25T08:21:32.584Z,17.95
2017-05-25T08:24:02.688Z,11.72
2017-05-25T08:26:32.876Z,10.88
2017-05-25T08:29:03.107Z,10.75
2017-05-25T08:31:33.449Z,9.98
2017-05-25T08:34:05.450Z,15.27
2017-05-25T08:36:35.600Z,12.62
2017-05-25T08:39:06.131Z,15.68
2017-05-25T08:41:42.262Z,10.58
2017-05-25T08:44:12.275Z,15.97
2017-05-25T08:46:42.412Z,15.15
2017-05-25T08:49:12.533Z,11.27
2017-05-25T08:51:42.750Z,10.37
2017-05-25T08:54:13.129Z,16.37
2017-05-25T08:56:43.091Z,14.78
2017-05-25T08:59:13.197Z,9.38
2017-05-25T09:01:43.595Z,15.15
2017-05-25T09:04:14.004Z,17.62
2017-05-25T09:06:44.150Z,12.75
2017-05-25T09:09:14.402Z,9.12
2017-05-25T09:11:44.577Z,13.95
2017-05-25T09:14:15.030Z,16.58
2017-05-25T09:16:45.402Z,12.67
2017-05-25T09:19:15.716Z,9.50
2017-05-25T09:21:45.906Z,11.42
2017-05-25T09:24:16.070Z,10.70
2017-05-25T09:26:46.164Z,15.58
2017-05-25T09:29:16.468Z,17.60
2017-05-25T09:31:46.831Z,14.97
2017-05-25T09:34:17.358Z,9.65
2017-05-25T09:36:47.295Z,16.13
2017-05-25T09:39:17.443Z,11.88
2017-05-25T09:41:47.813Z,13.60
2017-05-25T09:44:17.491Z,16.03
2017-05-25T09:46:47.390Z,13.23
2017-05-25T09:49:17.519Z,18.48
2017-05-25T09:51:48.024Z,11.95
2017-05-25T09:54:17.689Z,12.83
2017-05-25T09:56:47.675Z,14.73
2017-05-25T09:59:17.401Z,14.62
2017-05-25T10:01:47.479Z,12.93
2017-05-25T10:04:17.494Z,9.78
2017-05-25T10:06:47.635Z,15.02
2017-05-25T10:09:17.707Z,12.90
2017-05-25T10:11:47.129Z,12.30
2017-05-25T10:14:17.141Z,14.38
2017-05-25T10:16:47.209Z,11.85
2017-05-25T10:19:17.375Z,10.98
2017-05-25T10:21:46.865Z,11.48
2017-05-25T10:24:16.939Z,9.28
2017-05-25T10:26:47.112Z,12.70
2017-05-25T10:29:17.294Z,9.52
2017-05-25T10:31:47.543Z,11.88
2017-05-25T10:34:18.299Z,10.18
2017-05-25T10:36:48.559Z,11.18
2017-05-25T10:39:18.509Z,14.35
2017-05-25T10:41:48.676Z,10.02
2017-05-25T10:44:18.676Z,14.72
2017-05-25T10:46:49.066Z,11.72
2017-05-25T10:49:19.268Z,13.88
2017-05-25T10:51:49.448Z,11.04
2017-05-25T10:54:19.573Z,16.87
2017-05-25T10:56:49.677Z,9.34
2017-05-25T10:59:19.451Z,10.32
2017-05-25T11:01:49.619Z,8.20
2017-05-25T11:04:19.787Z,11.10
2017-05-25T11:06:49.973Z,9.42
2017-05-25T11:09:20.199Z,14.66
2017-05-25T11:11:50.200Z,11.18
2017-05-25T11:14:19.963Z,10.02
2017-05-25T11:16:50.233Z,9.96
2017-05-25T11:19:20.257Z,12.80
2017-05-25T11:21:49.642Z,11.04
2017-05-25T11:24:19.911Z,18.84
2017-05-25T11:26:50.169Z,12.12
2017-05-25T11:29:20.502Z,8.44
2017-05-25T11:31:50.593Z,14.20
2017-05-25T11:34:21.383Z,13.30
2017-05-25T11:36:51.594Z,17.30
2017-05-25T11:39:22.101Z,11.90
2017-05-25T11:41:52.031Z,10.88
2017-05-25T11:44:22.280Z,13.14
2017-05-25T11:46:52.359Z,9.16
2017-05-25T11:49:22.308Z,16.98
2017-05-25T11:51:51.652Z,7.72
2017-05-25T11:54:22.279Z,7.76
2017-05-25T11:56:52.375Z,13.08
2017-05-25T11:59:22.490Z,10.66
2017-05-25T12:01:52.499Z,10.90
2017-05-25T12:04:22.136Z,9.74
2017-05-25T12:06:52.513Z,8.12
2017-05-25T12:09:22.605Z,11.92
2017-05-25T12:11:52.938Z,7.74
2017-05-25T12:14:23.178Z,7.20
2017-05-25T12:16:53.151Z,9.76
2017-05-25T12:19:23.299Z,11.60
2017-05-25T12:21:53.539Z,12.38
2017-05-25T12:24:23.689Z,12.60
2017-05-25T12:26:54.085Z,8.96
2017-05-25T12:29:24.165Z,18.84
2017-05-25T12:31:54.247Z,13.48
2017-05-25T12:34:24.461Z,11.68
2017-05-25T12:36:54.619Z,9.14
2017-05-25T12:39:24.498Z,9.70
2017-05-25T12:41:54.759Z,17.02
2017-05-25T12:44:24.592Z,9.74
2017-05-25T12:46:54.663Z,13.58
2017-05-25T12:49:24.833Z,11.28
2017-05-25T12:51:55.060Z,9.52
2017-05-25T12:54:32.089Z,16.84
2017-05-25T12:57:02.415Z,10.64
2017-05-25T12:59:32.630Z,13.04
2017-05-25T13:02:02.889Z,16.12
2017-05-25T13:04:33.193Z,10.60
2017-05-25T13:07:03.247Z,13.22
2017-05-25T13:09:33.492Z,17.12
2017-05-25T13:12:03.828Z,17.90
2017-05-25T13:14:33.604Z,11.26
2017-05-25T13:17:04.162Z,14.38
2017-05-25T13:19:34.447Z,17.50
2017-05-25T13:22:04.893Z,10.04
2017-05-25T13:24:35.294Z,12.52
2017-05-25T13:27:05.387Z,12.02
2017-05-25T13:29:35.670Z,16.40
2017-05-25T13:32:05.664Z,12.38
2017-05-25T13:34:36.601Z,12.86
2017-05-25T13:37:06.614Z,8.28
2017-05-25T13:39:36.861Z,11.50
2017-05-25T13:42:07.078Z,9.90
2017-05-25T13:44:37.354Z,12.52
2017-05-25T13:47:07.586Z,16.74
2017-05-25T13:49:37.694Z,13.64
2017-05-25T13:52:07.960Z,12.98
2017-05-25T13:54:38.338Z,14.48
2017-05-25T13:57:07.468Z,16.46
2017-05-25T13:59:37.520Z,8.96
2017-05-25T14:02:07.539Z,11.94
2017-05-25T14:04:37.511Z,11.42
2017-05-25T14:07:07.664Z,14.78
2017-05-25T14:09:37.609Z,16.02
2017-05-25T14:12:07.938Z,10.04
2017-05-25T14:14:38.135Z,17.82
2017-05-25T14:17:08.253Z,13.36
2017-05-25T14:19:38.587Z,16.36
2017-05-25T14:22:08.779Z,11.04
2017-05-25T14:24:38.839Z,13.02
2017-05-25T14:27:08.385Z,16.46
2017-05-25T14:29:38.378Z,17.68
2017-05-25T14:32:08.007Z,14.38
2017-05-25T14:34:39.036Z,16.38
2017-05-25T14:37:09.128Z,16.68
2017-05-25T14:39:39.741Z,14.56
2017-05-25T14:42:09.941Z,17.32
2017-05-25T14:44:40.214Z,17.66
2017-05-25T14:47:10.561Z,17.80
2017-05-25T14:49:41.015Z,15.40
2017-05-25T14:52:10.958Z,14.12
2017-05-25T14:54:41.174Z,12.94
2017-05-25T14:57:11.300Z,18.64
2017-05-25T14:59:41.658Z,11.78
2017-05-25T15:02:11.834Z,16.94
2017-05-25T15:04:42.094Z,16.34
2017-05-25T15:07:12.051Z,20.60
2017-05-25T15:09:41.717Z,15.00
2017-05-25T15:12:12.210Z,16.90
2017-05-25T15:14:42.302Z,17.24
2017-05-25T15:17:12.227Z,12.62
2017-05-25T15:19:42.381Z,14.46
2017-05-25T15:22:12.621Z,15.40
2017-05-25T15:24:42.932Z,13.54
2017-05-25T15:27:13.066Z,14.60
2017-05-25T15:29:43.768Z,14.14
2017-05-25T15:32:14.234Z,15.38
2017-05-25T15:34:45.894Z,19.68
2017-05-25T15:37:15.848Z,12.78
2017-05-25T15:39:46.133Z,13.88
2017-05-25T15:42:16.189Z,18.28
2017-05-25T15:44:46.606Z,12.68
2017-05-25T15:47:17.112Z,10.00
2017-05-25T15:49:47.097Z,12.80
2017-05-25T15:52:17.459Z,15.64
2017-05-25T15:54:47.529Z,16.76
2017-05-25T15:57:17.910Z,18.98
2017-05-25T15:59:47.859Z,15.08
2017-05-25T16:02:17.935Z,19.02
2017-05-25T16:04:48.491Z,14.66
2017-05-25T16:07:18.892Z,22.36
2017-05-25T16:09:49.377Z,12.36
2017-05-25T16:12:19.272Z,20.04
2017-05-25T16:14:49.515Z,20.32
2017-05-25T16:17:19.130Z,11.50
2017-05-25T16:19:49.119Z,18.48
2017-05-25T16:22:19.115Z,13.32
2017-05-25T16:24:49.325Z,11.80
2017-05-25T16:27:19.641Z,11.10
2017-05-25T16:29:49.899Z,16.56
2017-05-25T16:32:20.320Z,15.62
2017-05-25T16:34:51.163Z,8.84
2017-05-25T16:37:21.482Z,9.10
2017-05-25T16:39:51.555Z,17.04
2017-05-25T16:42:22.026Z,6.58
2017-05-25T16:44:52.305Z,8.70
2017-05-25T16:47:22.314Z,8.50
2017-05-25T16:49:52.648Z,12.74
2017-05-25T16:52:21.998Z,13.14
2017-05-25T16:54:52.153Z,7.42
2017-05-25T16:57:22.141Z,6.56
2017-05-25T16:59:52.541Z,6.38
2017-05-25T17:02:22.699Z,7.32
2017-05-25T17:04:52.689Z,9.46
2017-05-25T17:07:22.727Z,9.28
2017-05-25T17:09:52.804Z,6.94
2017-05-25T17:12:22.996Z,12.04
2017-05-25T17:14:53.108Z,9.86
2017-05-25T17:17:23.585Z,9.96
2017-05-25T17:19:53.951Z,9.02
2017-05-25T17:22:23.929Z,8.76
2017-05-25T17:24:54.079Z,7.74
2017-05-25T17:27:24.368Z,8.28
2017-05-25T17:29:54.534Z,9.04
2017-05-25T17:32:24.531Z,11.46
2017-05-25T17:34:55.907Z,10.36
2017-05-25T17:37:26.190Z,9.10
2017-05-25T17:39:56.054Z,5.12
2017-05-25T17:42:26.328Z,10.84
2017-05-25T17:44:56.474Z,14.20
2017-05-25T17:47:26.532Z,6.78
2017-05-25T17:49:55.771Z,8.66
2017-05-25T17:52:25.938Z,8.48
2017-05-25T17:54:55.915Z,8.34
2017-05-25T17:57:26.185Z,6.80
2017-05-25T17:59:55.587Z,7.10
2017-05-25T18:02:25.721Z,10.26
2017-05-25T18:04:55.211Z,6.40
2017-05-25T18:07:25.349Z,8.22
2017-05-25T18:09:55.413Z,9.38
2017-05-25T18:12:25.720Z,7.06
2017-05-25T18:14:56.083Z,13.08
2017-05-25T18:17:26.321Z,8.60
2017-05-25T18:19:56.560Z,8.40
2017-05-25T18:22:26.643Z,9.36
2017-05-25T18:24:56.707Z,9.26
2017-05-25T18:27:26.897Z,6.72
2017-05-25T18:29:57.042Z,10.94
2017-05-25T18:32:27.151Z,5.58
2017-05-25T18:34:57.623Z,6.50
2017-05-25T18:37:27.868Z,9.40
2017-05-25T18:39:57.935Z,5.66
2017-05-25T18:42:35.394Z,9.76
2017-05-25T18:45:05.491Z,6.12
2017-05-25T18:47:35.558Z,8.00
2017-05-25T18:50:04.953Z,8.42
2017-05-25T18:52:35.489Z,11.04
2017-05-25T18:55:05.684Z,7.16
2017-05-25T18:57:35.847Z,6.44
2017-05-25T19:00:05.495Z,4.64
2017-05-25T19:02:35.601Z,6.24
2017-05-25T19:05:05.731Z,7.50
2017-05-25T19:07:36.423Z,7.70
2017-05-25T19:10:06.523Z,9.14
2017-05-25T19:12:36.984Z,5.32
2017-05-25T19:15:14.381Z,11.60
2017-05-25T19:17:44.659Z,9.00
2017-05-25T19:20:14.818Z,6.18
2017-05-25T19:22:44.901Z,5.46
2017-05-25T19:25:15.243Z,8.66
2017-05-25T19:27:45.526Z,3.90
2017-05-25T19:30:15.425Z,4.12
2017-05-25T19:32:45.403Z,3.30
2017-05-25T19:35:15.642Z,7.88
2017-05-25T19:37:45.945Z,7.20
2017-05-25T19:40:16.237Z,7.58
2017-05-25T19:42:46.150Z,5.74
2017-05-25T19:45:16.344Z,4.64
2017-05-25T19:47:46.455Z,8.00
2017-05-25T19:50:16.482Z,4.78
2017-05-25T19:52:46.508Z,5.92
2017-05-25T19:55:17.531Z,5.46
2017-05-25T19:57:47.895Z,10.44
2017-05-25T20:00:17.864Z,5.08
2017-05-25T20:02:48.078Z,8.46
2017-05-25T20:05:17.893Z,5.78
2017-05-25T20:07:47.884Z,5.78
2017-05-25T20:10:17.557Z,8.24
2017-05-25T20:12:47.990Z,5.50
2017-05-25T20:15:18.033Z,4.74
2017-05-25T20:17:48.244Z,9.02
2017-05-25T20:20:18.579Z,8.58
2017-05-25T20:22:48.935Z,4.58
2017-05-25T20:25:18.291Z,7.14
2017-05-25T20:27:48.293Z,7.06
2017-05-25T20:30:18.365Z,7.30
2017-05-25T20:32:47.762Z,6.38
2017-05-25T20:35:18.757Z,10.44
2017-05-25T20:37:48.865Z,7.80
2017-05-25T20:40:19.146Z,5.20
2017-05-25T20:42:49.076Z,10.26
2017-05-25T20:45:19.034Z,8.04
2017-05-25T20:47:49.074Z,9.06
2017-05-25T20:50:19.158Z,8.96
2017-05-25T20:52:49.355Z,7.44
2017-05-25T20:55:19.155Z,13.16
2017-05-25T20:57:49.435Z,6.42
2017-05-25T21:00:19.358Z,6.30
2017-05-25T21:02:49.580Z,7.06
2017-05-25T21:05:20.088Z,6.28
2017-05-25T21:07:55.458Z,9.58
2017-05-25T21:10:25.525Z,10.66
2017-05-25T21:12:55.454Z,12.88
2017-05-25T21:15:25.501Z,10.70
2017-05-25T21:17:55.852Z,13.02
2017-05-25T21:20:25.889Z,7.40
2017-05-25T21:22:55.665Z,6.74
2017-05-25T21:25:25.958Z,7.56
2017-05-25T21:27:56.073Z,8.04
2017-05-25T21:30:26.339Z,8.44
2017-05-25T21:32:56.531Z,8.94
2017-05-25T21:35:27.653Z,9.34
2017-05-25T21:37:58.091Z,6.28
2017-05-25T21:40:28.419Z,6.36
2017-05-25T21:42:58.444Z,8.04
2017-05-25T21:45:28.518Z,6.66
2017-05-25T21:47:58.635Z,8.36
2017-05-25T21:50:28.761Z,7.40
2017-05-25T21:52:58.982Z,7.56
2017-05-25T21:55:29.312Z,6.42
2017-05-25T21:57:59.665Z,8.52
2017-05-25T22:00:29.883Z,5.62
2017-05-25T22:03:00.337Z,4.36
2017-05-25T22:05:30.647Z,5.92
2017-05-25T22:08:00.714Z,7.70
2017-05-25T22:10:36.961Z,6.38
2017-05-25T22:13:06.826Z,10.44
2017-05-25T22:15:37.088Z,5.68
2017-05-25T22:18:07.381Z,4.82
2017-05-25T22:20:37.590Z,5.52
2017-05-25T22:23:07.643Z,5.66
2017-05-25T22:25:38.194Z,4.34
2017-05-25T22:28:08.389Z,5.14
2017-05-25T22:30:38.788Z,3.88
2017-05-25T22:33:08.992Z,3.40
2017-05-25T22:35:40.367Z,6.12
2017-05-25T22:38:10.371Z,2.92
2017-05-25T22:40:40.793Z,6.84
2017-05-25T22:43:10.948Z,4.52
2017-05-25T22:45:41.238Z,5.50
2017-05-25T22:48:11.293Z,5.90
2017-05-25T22:50:41.486Z,3.50
2017-05-25T22:53:11.797Z,4.36
2017-05-25T22:55:41.847Z,4.68
2017-05-25T22:58:11.833Z,3.54
2017-05-25T23:00:42.049Z,5.82
2017-05-25T23:03:12.185Z,5.90
2017-05-25T23:05:42.363Z,3.68
2017-05-25T23:08:12.266Z,3.98
2017-05-25T23:10:42.431Z,3.60
2017-05-25T23:13:12.393Z,3.16
2017-05-25T23:15:42.758Z,3.38
2017-05-25T23:18:12.741Z,5.14
2017-05-25T23:20:43.043Z,4.76
2017-05-25T23:23:13.378Z,3.44
2017-05-25T23:25:43.686Z,5.92
2017-05-25T23:28:13.821Z,4.10
2017-05-25T23:30:44.072Z,9.60
2017-05-25T23:33:14.073Z,3.98
2017-05-25T23:35:44.426Z,5.16
2017-05-25T23:38:14.701Z,4.38
2017-05-25T23:40:45.171Z,4.60
2017-05-25T23:43:15.329Z,3.40
2017-05-25T23:45:45.673Z,1.88
2017-05-25T23:48:16.042Z,4.28
2017-05-25T23:50:45.506Z,3.40
2017-05-25T23:53:15.894Z,5.12
2017-05-25T23:55:45.451Z,3.48
2017-05-25T23:58:15.319Z,1.86
